Time,TemperatureF,DewpointF,PressureIn,WindDirection,WindDirectionDegrees,WindSpeedMPH,WindSpeedGustMPH,Humidity,HourlyPrecipIn,Conditions,Clouds,dailyrainin,SoftwareType,DateUTC
2013-01-06 00:00:00,47.6,33.1,30.26,SSE,165,0.0,0.0,57,0.00,,---,0.00,VWS V14.00,2013-01-06 05:00:00,
2013-01-06 00:01:00,47.5,33.5,30.26,SSE,165,0.0,0.0,58,0.00,,---,0.00,VWS V14.00,2013-01-06 05:01:00,
2013-01-06 00:06:00,47.5,33.5,30.26,SSE,165,0.0,1.0,58,0.00,,---,0.00,VWS V14.00,2013-01-06 05:06:00,
2013-01-06 00:08:00,47.6,34.0,30.26,SSE,165,0.0,1.0,59,0.00,,---,0.00,VWS V14.00,2013-01-06 05:08:00,
2013-01-06 00:13:00,47.6,33.1,30.26,SSE,165,1.0,1.0,57,0.00,,---,0.00,VWS V14.00,2013-01-06 05:13:00,
2013-01-06 00:18:00,47.6,33.6,30.26,SSE,165,0.0,1.0,58,0.00,,---,0.00,VWS V14.00,2013-01-06 05:18:00,
2013-01-06 00:23:00,47.6,33.1,30.25,SSE,165,0.0,1.0,57,0.00,,---,0.00,VWS V14.00,2013-01-06 05:23:00,
2013-01-06 00:28:00,47.6,33.6,30.25,SSE,165,0.0,0.0,58,0.00,,---,0.00,VWS V14.00,2013-01-06 05:28:00,
2013-01-06 00:33:00,47.6,34.8,30.24,SSE,165,0.0,0.0,61,0.00,,---,0.00,VWS V14.00,2013-01-06 05:33:00,
2013-01-06 00:38:00,47.7,35.3,30.24,SSE,165,0.0,2.0,62,0.00,,---,0.00,VWS V14.00,2013-01-06 05:38:00,
2013-01-06 00:43:00,47.5,34.7,30.24,SSE,165,0.0,2.0,61,0.00,,---,0.00,VWS V14.00,2013-01-06 05:43:00,
2013-01-06 00:48:00,47.3,34.5,30.24,SSE,165,0.0,2.0,61,0.00,,---,0.00,VWS V14.00,2013-01-06 05:48:00,
2013-01-06 00:53:00,47.2,36.0,30.24,SSE,165,0.0,2.0,65,0.00,,---,0.00,VWS V14.00,2013-01-06 05:53:00,
2013-01-06 00:58:00,47.2,36.0,30.24,SSE,165,0.0,0.0,65,0.00,,---,0.00,VWS V14.00,2013-01-06 05:58:00,
2013-01-06 01:03:00,47.1,35.2,30.23,SSE,165,0.0,0.0,63,0.00,,---,0.00,VWS V14.00,2013-01-06 06:03:00,
2013-01-06 01:08:00,47.0,35.1,30.23,SSE,165,0.0,0.0,63,0.00,,---,0.00,VWS V14.00,2013-01-06 06:08:00,
2013-01-06 01:13:00,47.0,35.1,30.23,SSE,165,0.0,0.0,63,0.00,,---,0.00,VWS V14.00,2013-01-06 06:13:00,
2013-01-06 01:18:00,47.0,36.2,30.23,SSE,165,0.0,1.0,66,0.00,,---,0.00,VWS V14.00,2013-01-06 06:18:00,
2013-01-06 01:23:00,46.9,36.2,30.23,SSE,165,0.0,1.0,66,0.00,,---,0.00,VWS V14.00,2013-01-06 06:23:00,
2013-01-06 01:28:00,46.9,36.2,30.23,SSE,165,0.0,0.0,66,0.00,,---,0.00,VWS V14.00,2013-01-06 06:28:00,
2013-01-06 01:33:00,46.8,36.0,30.24,SSE,165,0.0,0.0,66,0.00,,---,0.00,VWS V14.00,2013-01-06 06:33:00,
2013-01-06 01:38:00,46.8,36.0,30.24,SSE,165,0.0,0.0,66,0.00,,---,0.00,VWS V14.00,2013-01-06 06:38:00,
2013-01-06 01:43:00,46.8,35.3,30.24,SSE,165,0.0,0.0,64,0.00,,---,0.00,VWS V14.00,2013-01-06 06:43:00,
2013-01-06 01:48:00,46.9,35.0,30.23,SSE,165,0.0,1.0,63,0.00,,---,0.00,VWS V14.00,2013-01-06 06:48:00,
2013-01-06 01:53:00,46.9,35.4,30.24,SSE,165,1.0,1.0,64,0.00,,---,0.00,VWS V14.00,2013-01-06 06:53:00,
2013-01-06 01:58:00,47.0,35.1,30.23,SSE,165,1.0,1.0,63,0.00,,---,0.00,VWS V14.00,2013-01-06 06:58:00,
2013-01-06 02:03:00,47.0,34.7,30.24,SSE,165,0.0,1.0,62,0.00,,---,0.00,VWS V14.00,2013-01-06 07:03:00,
2013-01-06 02:08:00,47.0,35.1,30.23,SSE,165,0.0,1.0,63,0.00,,---,0.00,VWS V14.00,2013-01-06 07:08:00,
2013-01-06 02:17:00,47.0,34.7,30.23,SSE,165,0.0,1.0,62,0.00,,---,0.00,VWS V14.00,2013-01-06 07:17:00,
2013-01-06 02:23:00,47.0,35.5,30.23,SSE,165,0.0,1.0,64,0.00,,---,0.00,VWS V14.00,2013-01-06 07:23:00,
2013-01-06 02:28:00,47.0,36.2,30.23,SSE,165,0.0,0.0,66,0.00,,---,0.00,VWS V14.00,2013-01-06 07:28:00,
2013-01-06 02:33:00,46.9,36.2,30.23,SSE,165,0.0,0.0,66,0.00,,---,0.00,VWS V14.00,2013-01-06 07:33:00,
2013-01-06 02:38:00,46.9,36.5,30.22,SSE,165,0.0,0.0,67,0.00,,---,0.00,VWS V14.00,2013-01-06 07:38:00,
2013-01-06 02:43:00,46.8,37.5,30.22,SSE,165,0.0,1.0,70,0.00,,---,0.00,VWS V14.00,2013-01-06 07:43:00,
2013-01-06 02:48:00,46.7,37.5,30.22,SSE,165,0.0,1.0,70,0.00,,---,0.00,VWS V14.00,2013-01-06 07:48:00,
2013-01-06 02:53:00,46.5,37.6,30.22,SSE,165,0.0,1.0,71,0.00,,---,0.00,VWS V14.00,2013-01-06 07:53:00,
2013-01-06 02:58:00,46.5,38.0,30.22,SSE,165,0.0,0.0,72,0.00,,---,0.00,VWS V14.00,2013-01-06 07:58:00,
2013-01-06 03:03:00,46.4,37.5,30.23,SSE,165,0.0,0.0,71,0.00,,---,0.00,VWS V14.00,2013-01-06 08:03:00,
2013-01-06 03:09:00,46.3,38.1,30.22,SSE,165,0.0,0.0,73,0.00,,---,0.00,VWS V14.00,2013-01-06 08:09:00,
2013-01-06 03:14:00,46.3,38.1,30.22,SSE,165,0.0,0.0,73,0.00,,---,0.00,VWS V14.00,2013-01-06 08:14:00,
2013-01-06 03:19:00,46.3,38.5,30.22,SSE,165,0.0,0.0,74,0.00,,---,0.00,VWS V14.00,2013-01-06 08:19:00,
2013-01-06 03:24:00,46.2,37.7,30.22,SSE,165,0.0,0.0,72,0.00,,---,0.00,VWS V14.00,2013-01-06 08:24:00,
2013-01-06 03:29:00,46.2,38.0,30.22,SSE,165,0.0,0.0,73,0.00,,---,0.00,VWS V14.00,2013-01-06 08:29:00,
2013-01-06 03:34:00,46.1,37.9,30.21,SSE,165,0.0,0.0,73,0.00,,---,0.00,VWS V14.00,2013-01-06 08:34:00,
2013-01-06 03:39:00,46.1,38.3,30.21,SSE,165,0.0,0.0,74,0.00,,---,0.00,VWS V14.00,2013-01-06 08:39:00,
2013-01-06 03:44:00,46.1,38.3,30.20,SSE,165,0.0,0.0,74,0.00,,---,0.00,VWS V14.00,2013-01-06 08:44:00,
2013-01-06 03:49:00,46.0,37.8,30.20,SSE,165,0.0,0.0,73,0.00,,---,0.00,VWS V14.00,2013-01-06 08:49:00,
2013-01-06 03:54:00,46.0,37.5,30.20,SSE,165,0.0,0.0,72,0.00,,---,0.00,VWS V14.00,2013-01-06 08:54:00,
2013-01-06 03:59:00,46.0,37.1,30.20,SSE,165,0.0,0.0,71,0.00,,---,0.00,VWS V14.00,2013-01-06 08:59:00,
2013-01-06 04:04:00,46.0,36.8,30.20,SSE,165,0.0,1.0,70,0.00,,---,0.00,VWS V14.00,2013-01-06 09:04:00,
2013-01-06 04:09:00,46.1,36.9,30.20,SSE,165,0.0,1.0,70,0.00,,---,0.00,VWS V14.00,2013-01-06 09:09:00,
2013-01-06 04:14:00,46.1,36.1,30.20,SSE,165,0.0,1.0,68,0.00,,---,0.00,VWS V14.00,2013-01-06 09:14:00,
2013-01-06 04:19:00,46.2,35.5,30.20,SSE,165,0.0,1.0,66,0.00,,---,0.00,VWS V14.00,2013-01-06 09:19:00,
2013-01-06 04:24:00,46.2,35.1,30.20,SSE,165,0.0,4.0,65,0.00,,---,0.00,VWS V14.00,2013-01-06 09:24:00,
2013-01-06 04:29:00,46.3,35.2,30.20,South,178,0.0,0.0,65,0.00,,---,0.00,VWS V14.00,2013-01-06 09:29:00,
2013-01-06 04:34:00,46.3,35.2,30.20,South,178,1.0,1.0,65,0.00,,---,0.00,VWS V14.00,2013-01-06 09:34:00,
2013-01-06 04:39:00,46.4,35.7,30.20,South,179,0.0,2.0,66,0.00,,---,0.00,VWS V14.00,2013-01-06 09:39:00,
2013-01-06 04:47:00,46.3,36.0,30.20,South,184,0.0,0.0,67,0.00,,---,0.00,VWS V14.00,2013-01-06 09:47:00,
2013-01-06 04:52:00,46.2,35.9,30.20,South,184,0.0,1.0,67,0.00,,---,0.00,VWS V14.00,2013-01-06 09:52:00,
2013-01-06 04:57:00,46.2,35.9,30.20,South,186,0.0,2.0,67,0.00,,---,0.00,VWS V14.00,2013-01-06 09:57:00,
2013-01-06 05:02:00,46.1,36.1,30.20,SSW,198,0.0,3.0,68,0.00,,---,0.00,VWS V14.00,2013-01-06 10:02:00,
2013-01-06 05:07:00,46.1,36.1,30.20,West,264,1.0,4.0,68,0.00,,---,0.00,VWS V14.00,2013-01-06 10:07:00,
2013-01-06 05:12:00,46.0,36.4,30.20,NW,317,0.0,5.0,69,0.00,,---,0.00,VWS V14.00,2013-01-06 10:12:00,
2013-01-06 05:17:00,46.0,36.8,30.20,NW,317,0.0,5.0,70,0.00,,---,0.00,VWS V14.00,2013-01-06 10:17:00,
2013-01-06 05:22:00,45.9,37.4,30.20,NW,319,2.0,5.0,72,0.00,,---,0.00,VWS V14.00,2013-01-06 10:22:00,
2013-01-06 05:27:00,45.6,38.2,30.20,NNW,329,0.0,6.0,75,0.00,,---,0.00,VWS V14.00,2013-01-06 10:27:00,
2013-01-06 05:32:00,45.1,38.7,30.20,NNW,330,0.0,4.0,78,0.00,,---,0.00,VWS V14.00,2013-01-06 10:32:00,
2013-01-06 05:37:00,44.7,38.9,30.20,NNW,328,0.0,4.0,80,0.00,,---,0.00,VWS V14.00,2013-01-06 10:37:00,
2013-01-06 05:42:00,44.3,38.5,30.20,NNW,328,0.0,4.0,80,0.00,,---,0.00,VWS V14.00,2013-01-06 10:42:00,
2013-01-06 05:47:00,44.1,39.0,30.21,NNW,328,0.0,4.0,82,0.00,,---,0.00,VWS V14.00,2013-01-06 10:47:00,
2013-01-06 05:52:00,44.0,38.9,30.20,NNW,327,0.0,4.0,82,0.00,,---,0.00,VWS V14.00,2013-01-06 10:52:00,
2013-01-06 05:57:00,43.8,39.0,30.20,NNW,327,0.0,4.0,83,0.01,,---,0.01,VWS V14.00,2013-01-06 10:57:00,
2013-01-06 06:02:00,43.7,38.9,30.21,NNW,327,0.0,2.0,83,0.01,,---,0.01,VWS V14.00,2013-01-06 11:02:00,
2013-01-06 06:07:00,43.6,39.1,30.20,NNW,327,0.0,2.0,84,0.01,,---,0.01,VWS V14.00,2013-01-06 11:07:00,
2013-01-06 06:12:00,43.6,39.1,30.20,NNW,327,0.0,2.0,84,0.01,,---,0.01,VWS V14.00,2013-01-06 11:12:00,
2013-01-06 06:17:00,43.5,39.0,30.20,NNW,327,0.0,2.0,84,0.01,,---,0.01,VWS V14.00,2013-01-06 11:17:00,
2013-01-06 06:22:00,43.4,38.9,30.20,NNW,327,1.0,2.0,84,0.01,,---,0.01,VWS V14.00,2013-01-06 11:22:00,
2013-01-06 06:27:00,43.4,38.9,30.19,NNW,327,0.0,2.0,84,0.01,,---,0.01,VWS V14.00,2013-01-06 11:27:00,
2013-01-06 06:32:00,43.4,38.9,30.19,NNW,327,0.0,0.0,84,0.01,,---,0.01,VWS V14.00,2013-01-06 11:32:00,
2013-01-06 06:37:00,43.3,38.8,30.20,NNW,327,0.0,1.0,84,0.01,,---,0.01,VWS V14.00,2013-01-06 11:37:00,
2013-01-06 06:42:00,43.3,38.8,30.20,NNW,327,0.0,2.0,84,0.01,,---,0.01,VWS V14.00,2013-01-06 11:42:00,
2013-01-06 06:47:00,43.4,38.9,30.21,NNW,327,0.0,2.0,84,0.01,,---,0.01,VWS V14.00,2013-01-06 11:47:00,
2013-01-06 06:52:00,43.4,38.9,30.20,NNW,327,0.0,2.0,84,0.01,,---,0.01,VWS V14.00,2013-01-06 11:52:00,
2013-01-06 06:57:00,43.4,38.9,30.20,NNW,327,1.0,5.0,84,0.01,,---,0.01,VWS V14.00,2013-01-06 11:57:00,
2013-01-06 07:02:00,43.4,38.9,30.20,NNW,327,0.0,2.0,84,0.00,,---,0.01,VWS V14.00,2013-01-06 12:02:00,
2013-01-06 07:07:00,43.4,38.9,30.20,NNW,327,0.0,2.0,84,0.00,,---,0.01,VWS V14.00,2013-01-06 12:07:00,
2013-01-06 07:12:00,43.5,39.0,30.20,NNW,327,0.0,2.0,84,0.00,,---,0.01,VWS V14.00,2013-01-06 12:12:00,
2013-01-06 07:17:00,43.5,39.3,30.20,NNW,328,0.0,5.0,85,0.00,,---,0.01,VWS V14.00,2013-01-06 12:17:00,
2013-01-06 07:22:00,43.5,39.6,30.21,NNW,328,0.0,5.0,86,0.00,,---,0.01,VWS V14.00,2013-01-06 12:22:00,
2013-01-06 07:27:00,43.5,39.6,30.21,NNW,328,0.0,5.0,86,0.00,,---,0.01,VWS V14.00,2013-01-06 12:27:00,
2013-01-06 07:32:00,43.4,39.8,30.20,NNW,328,0.0,1.0,87,0.00,,---,0.01,VWS V14.00,2013-01-06 12:32:00,
2013-01-06 07:38:00,43.4,40.1,30.20,NNW,328,0.0,1.0,88,0.00,,---,0.01,VWS V14.00,2013-01-06 12:38:00,
2013-01-06 07:43:00,43.4,40.1,30.20,NNW,328,0.0,1.0,88,0.00,,---,0.01,VWS V14.00,2013-01-06 12:43:00,
2013-01-06 07:48:00,43.4,40.4,30.20,NNW,328,0.0,1.0,89,0.00,,---,0.01,VWS V14.00,2013-01-06 12:48:00,
2013-01-06 07:53:00,43.4,40.7,30.20,NNW,328,0.0,1.0,90,0.00,,---,0.01,VWS V14.00,2013-01-06 12:53:00,
2013-01-06 07:58:00,43.4,40.7,30.21,NNW,328,0.0,0.0,90,0.00,,---,0.01,VWS V14.00,2013-01-06 12:58:00,
2013-01-06 08:03:00,43.4,40.7,30.20,NNW,328,0.0,1.0,90,0.01,,---,0.02,VWS V14.00,2013-01-06 13:03:00,
2013-01-06 08:08:00,43.4,40.7,30.20,NNW,328,0.0,1.0,90,0.01,,---,0.02,VWS V14.00,2013-01-06 13:08:00,
2013-01-06 08:13:00,43.4,41.0,30.20,NNW,328,0.0,1.0,91,0.01,,---,0.02,VWS V14.00,2013-01-06 13:13:00,
2013-01-06 08:18:00,43.4,41.0,30.20,NNW,328,0.0,1.0,91,0.01,,---,0.02,VWS V14.00,2013-01-06 13:18:00,
2013-01-06 08:23:00,43.4,41.0,30.20,NNW,328,0.0,1.0,91,0.01,,---,0.02,VWS V14.00,2013-01-06 13:23:00,
2013-01-06 08:28:00,43.5,41.0,30.20,NNW,328,0.0,0.0,91,0.01,,---,0.02,VWS V14.00,2013-01-06 13:28:00,
2013-01-06 08:33:00,43.6,41.2,30.20,NNW,328,0.0,1.0,91,0.01,,---,0.02,VWS V14.00,2013-01-06 13:33:00,
2013-01-06 08:38:00,43.6,41.2,30.21,NNW,328,0.0,1.0,91,0.01,,---,0.02,VWS V14.00,2013-01-06 13:38:00,
2013-01-06 08:43:00,43.7,41.2,30.21,NNW,328,0.0,1.0,91,0.01,,---,0.02,VWS V14.00,2013-01-06 13:43:00,
2013-01-06 08:48:00,43.7,41.2,30.22,NNW,328,0.0,2.0,91,0.01,,---,0.02,VWS V14.00,2013-01-06 13:48:00,
2013-01-06 08:53:00,43.8,41.3,30.22,NNW,328,0.0,4.0,91,0.01,,---,0.02,VWS V14.00,2013-01-06 13:53:00,
2013-01-06 08:58:00,43.9,41.5,30.22,NNW,328,0.0,0.0,91,0.01,,---,0.02,VWS V14.00,2013-01-06 13:58:00,
2013-01-06 09:03:00,44.0,41.5,30.21,NNW,328,0.0,1.0,91,0.01,,---,0.02,VWS V14.00,2013-01-06 14:03:00,
2013-01-06 09:08:00,44.0,41.5,30.21,NNW,328,0.0,2.0,91,0.01,,---,0.02,VWS V14.00,2013-01-06 14:08:00,
2013-01-06 09:13:00,44.1,41.7,30.22,NNW,328,0.0,2.0,91,0.01,,---,0.02,VWS V14.00,2013-01-06 14:13:00,
2013-01-06 09:18:00,44.2,41.5,30.22,NNW,328,0.0,2.0,90,0.01,,---,0.02,VWS V14.00,2013-01-06 14:18:00,
2013-01-06 09:23:00,44.4,41.7,30.21,NNW,328,0.0,2.0,90,0.01,,---,0.02,VWS V14.00,2013-01-06 14:23:00,
2013-01-06 09:28:00,44.6,41.8,30.21,NW,324,0.0,1.0,90,0.00,,---,0.02,VWS V14.00,2013-01-06 14:28:00,
2013-01-06 09:33:00,44.9,41.9,30.21,WNW,286,4.0,5.0,89,0.00,,---,0.02,VWS V14.00,2013-01-06 14:33:00,
2013-01-06 09:38:00,45.1,41.8,30.21,WNW,284,2.0,5.0,88,0.00,,---,0.02,VWS V14.00,2013-01-06 14:38:00,
2013-01-06 09:43:00,45.3,41.7,30.21,WNW,283,0.0,5.0,87,0.00,,---,0.02,VWS V14.00,2013-01-06 14:43:00,
2013-01-06 09:48:00,45.5,41.6,30.21,WNW,282,0.0,5.0,86,0.00,,---,0.02,VWS V14.00,2013-01-06 14:48:00,
2013-01-06 09:53:00,45.7,41.5,30.22,West,281,0.0,5.0,85,0.00,,---,0.02,VWS V14.00,2013-01-06 14:53:00,
2013-01-06 09:58:00,45.9,41.3,30.22,NW,308,0.0,0.0,84,0.00,,---,0.02,VWS V14.00,2013-01-06 14:58:00,
2013-01-06 10:03:00,46.1,41.5,30.21,NW,317,0.0,7.0,84,0.00,,---,0.02,VWS V14.00,2013-01-06 15:03:00,
2013-01-06 10:08:00,46.3,41.1,30.22,WNW,302,2.0,7.0,82,0.00,,---,0.02,VWS V14.00,2013-01-06 15:08:00,
2013-01-06 10:13:00,46.5,41.0,30.21,WNW,291,1.0,7.0,81,0.00,,---,0.02,VWS V14.00,2013-01-06 15:13:00,
2013-01-06 10:18:00,46.7,41.2,30.22,WNW,291,0.0,7.0,81,0.00,,---,0.02,VWS V14.00,2013-01-06 15:18:00,
2013-01-06 10:23:00,47.0,41.2,30.22,WNW,291,0.0,7.0,80,0.00,,---,0.02,VWS V14.00,2013-01-06 15:23:00,
2013-01-06 10:28:00,47.2,41.4,30.21,WNW,290,0.0,0.0,80,0.00,,---,0.02,VWS V14.00,2013-01-06 15:28:00,
2013-01-06 10:33:00,47.4,41.5,30.21,WNW,290,0.0,4.0,80,0.00,,---,0.02,VWS V14.00,2013-01-06 15:33:00,
2013-01-06 10:38:00,47.6,41.8,30.22,WNW,289,1.0,5.0,80,0.00,,---,0.02,VWS V14.00,2013-01-06 15:38:00,
2013-01-06 10:43:00,47.7,41.8,30.22,WNW,295,5.0,6.0,80,0.00,,---,0.02,VWS V14.00,2013-01-06 15:43:00,
2013-01-06 10:48:00,47.9,41.4,30.22,WNW,300,4.0,6.0,78,0.00,,---,0.02,VWS V14.00,2013-01-06 15:48:00,
2013-01-06 10:53:00,48.0,41.2,30.22,WNW,293,0.0,6.0,77,0.00,,---,0.02,VWS V14.00,2013-01-06 15:53:00,
2013-01-06 10:58:00,48.0,40.8,30.22,West,279,2.0,2.0,76,0.00,,---,0.02,VWS V14.00,2013-01-06 15:58:00,
2013-01-06 11:03:00,48.0,40.8,30.21,West,278,1.0,5.0,76,0.00,,---,0.02,VWS V14.00,2013-01-06 16:03:00,
2013-01-06 11:08:00,48.0,40.8,30.20,West,275,4.0,5.0,76,0.00,,---,0.02,VWS V14.00,2013-01-06 16:08:00,
2013-01-06 11:13:00,48.0,41.2,30.20,West,272,1.0,5.0,77,0.00,,---,0.02,VWS V14.00,2013-01-06 16:13:00,
2013-01-06 11:18:00,48.1,40.9,30.19,West,271,1.0,5.0,76,0.00,,---,0.02,VWS V14.00,2013-01-06 16:18:00,
2013-01-06 11:23:00,48.3,40.8,30.20,West,271,1.0,5.0,75,0.00,,---,0.02,VWS V14.00,2013-01-06 16:23:00,
2013-01-06 11:28:00,48.4,40.8,30.20,West,271,0.0,5.0,75,0.00,,---,0.02,VWS V14.00,2013-01-06 16:28:00,
2013-01-06 11:33:00,48.6,41.0,30.19,West,271,0.0,2.0,75,0.00,,---,0.02,VWS V14.00,2013-01-06 16:33:00,
2013-01-06 11:38:00,48.8,40.9,30.19,West,269,3.0,5.0,74,0.00,,---,0.02,VWS V14.00,2013-01-06 16:38:00,
2013-01-06 11:43:00,48.9,40.6,30.19,West,267,0.0,5.0,73,0.00,,---,0.02,VWS V14.00,2013-01-06 16:43:00,
2013-01-06 11:48:00,49.0,40.7,30.18,West,267,2.0,5.0,73,0.00,,---,0.02,VWS V14.00,2013-01-06 16:48:00,
2013-01-06 11:53:00,49.0,40.7,30.18,West,267,0.0,5.0,73,0.00,,---,0.02,VWS V14.00,2013-01-06 16:53:00,
2013-01-06 11:58:00,49.1,40.5,30.18,West,267,2.0,5.0,72,0.00,,---,0.02,VWS V14.00,2013-01-06 16:58:00,
2013-01-06 12:03:00,49.1,40.5,30.18,West,267,1.0,2.0,72,0.00,,---,0.02,VWS V14.00,2013-01-06 17:03:00,
2013-01-06 12:08:00,49.1,40.5,30.17,West,267,0.0,3.0,72,0.00,,---,0.02,VWS V14.00,2013-01-06 17:08:00,
2013-01-06 12:13:00,49.1,40.1,30.17,West,266,0.0,4.0,71,0.00,,---,0.02,VWS V14.00,2013-01-06 17:13:00,
2013-01-06 12:18:00,49.2,40.6,30.17,West,266,0.0,4.0,72,0.00,,---,0.02,VWS V14.00,2013-01-06 17:18:00,
2013-01-06 12:23:00,49.2,40.2,30.16,West,266,0.0,4.0,71,0.00,,---,0.02,VWS V14.00,2013-01-06 17:23:00,
2013-01-06 12:28:00,49.2,40.2,30.16,West,266,2.0,4.0,71,0.00,,---,0.02,VWS V14.00,2013-01-06 17:28:00,
2013-01-06 12:33:00,49.3,40.7,30.16,West,271,1.0,6.0,72,0.00,,---,0.02,VWS V14.00,2013-01-06 17:33:00,
2013-01-06 12:38:00,49.4,40.4,30.16,West,271,0.0,6.0,71,0.00,,---,0.02,VWS V14.00,2013-01-06 17:38:00,
2013-01-06 12:43:00,49.5,40.9,30.15,West,271,0.0,6.0,72,0.00,,---,0.02,VWS V14.00,2013-01-06 17:43:00,
2013-01-06 12:48:00,49.6,41.7,30.15,West,273,1.0,6.0,74,0.00,,---,0.02,VWS V14.00,2013-01-06 17:48:00,
2013-01-06 12:53:00,49.6,42.4,30.14,West,272,1.0,6.0,76,0.00,,---,0.02,VWS V14.00,2013-01-06 17:53:00,
2013-01-06 12:58:00,49.2,42.3,30.14,West,263,3.0,6.0,77,0.01,,---,0.03,VWS V14.00,2013-01-06 17:58:00,
2013-01-06 13:03:00,48.8,42.9,30.14,West,260,5.0,5.0,80,0.01,,---,0.03,VWS V14.00,2013-01-06 18:03:00,
2013-01-06 13:08:00,48.3,43.1,30.14,West,259,0.0,5.0,82,0.01,,---,0.03,VWS V14.00,2013-01-06 18:08:00,
2013-01-06 13:13:00,48.0,43.4,30.14,WSW,257,3.0,5.0,84,0.01,,---,0.03,VWS V14.00,2013-01-06 18:13:00,
2013-01-06 13:18:00,47.8,43.5,30.14,WSW,256,4.0,5.0,85,0.01,,---,0.03,VWS V14.00,2013-01-06 18:18:00,
2013-01-06 13:23:00,47.6,43.6,30.13,WSW,254,1.0,5.0,86,0.01,,---,0.03,VWS V14.00,2013-01-06 18:23:00,
2013-01-06 13:28:00,47.5,43.5,30.13,WSW,257,1.0,5.0,86,0.01,,---,0.03,VWS V14.00,2013-01-06 18:28:00,
2013-01-06 13:33:00,47.3,43.3,30.13,WSW,256,0.0,4.0,86,0.01,,---,0.03,VWS V14.00,2013-01-06 18:33:00,
2013-01-06 13:38:00,47.3,43.6,30.12,WSW,255,2.0,4.0,87,0.01,,---,0.03,VWS V14.00,2013-01-06 18:38:00,
2013-01-06 13:43:00,47.3,43.6,30.12,WSW,254,1.0,4.0,87,0.01,,---,0.03,VWS V14.00,2013-01-06 18:43:00,
2013-01-06 13:48:00,47.3,43.6,30.12,WSW,255,3.0,4.0,87,0.01,,---,0.03,VWS V14.00,2013-01-06 18:48:00,
2013-01-06 13:53:00,47.4,43.7,30.12,West,259,3.0,6.0,87,0.01,,---,0.03,VWS V14.00,2013-01-06 18:53:00,
2013-01-06 13:58:00,47.5,43.8,30.12,WNW,285,1.0,6.0,87,0.01,,---,0.03,VWS V14.00,2013-01-06 18:58:00,
2013-01-06 14:03:00,47.6,43.9,30.11,SW,236,4.0,8.0,87,0.00,,---,0.03,VWS V14.00,2013-01-06 19:03:00,
2013-01-06 14:08:00,47.8,44.1,30.11,WSW,250,0.0,8.0,87,0.00,,---,0.03,VWS V14.00,2013-01-06 19:08:00,
2013-01-06 14:13:00,48.0,44.3,30.11,WSW,252,2.0,8.0,87,0.00,,---,0.03,VWS V14.00,2013-01-06 19:13:00,
2013-01-06 14:18:00,48.2,44.5,30.11,WSW,252,0.0,8.0,87,0.00,,---,0.03,VWS V14.00,2013-01-06 19:18:00,
2013-01-06 14:23:00,48.5,44.8,30.11,WSW,252,2.0,8.0,87,0.00,,---,0.03,VWS V14.00,2013-01-06 19:23:00,
2013-01-06 14:28:00,48.7,44.7,30.11,WSW,252,3.0,8.0,86,0.00,,---,0.03,VWS V14.00,2013-01-06 19:28:00,
2013-01-06 14:33:00,49.0,44.7,30.11,WSW,250,1.0,4.0,85,0.00,,---,0.03,VWS V14.00,2013-01-06 19:33:00,
2013-01-06 14:38:00,49.2,44.6,30.11,WSW,258,2.0,4.0,84,0.00,,---,0.03,VWS V14.00,2013-01-06 19:38:00,
2013-01-06 14:48:00,49.6,45.0,30.11,WSW,257,1.0,6.0,84,0.00,,---,0.03,VWS V14.00,2013-01-06 19:48:00,
2013-01-06 14:53:00,49.8,44.5,30.11,WSW,257,2.0,6.0,82,0.00,,---,0.03,VWS V14.00,2013-01-06 19:53:00,
2013-01-06 14:58:00,50.0,45.0,30.11,WSW,257,0.0,2.0,83,0.00,,---,0.03,VWS V14.00,2013-01-06 19:58:00,
2013-01-06 15:03:00,50.2,44.9,30.11,WSW,257,0.0,3.0,82,0.00,,---,0.03,VWS V14.00,2013-01-06 20:03:00,
2013-01-06 15:08:00,50.3,44.7,30.11,WSW,257,1.0,4.0,81,0.00,,---,0.03,VWS V14.00,2013-01-06 20:08:00,
2013-01-06 15:11:00,50.4,44.5,30.11,WNW,282,0.0,6.0,80,0.00,,---,0.03,VWS V14.00,2013-01-06 20:11:00,
2013-01-06 15:13:00,50.4,44.8,30.11,West,280,0.0,6.0,81,0.00,,---,0.03,VWS V14.00,2013-01-06 20:13:00,
2013-01-06 15:18:00,50.5,44.6,30.11,West,265,1.0,6.0,80,0.00,,---,0.03,VWS V14.00,2013-01-06 20:18:00,
2013-01-06 15:23:00,50.6,44.7,30.11,West,264,2.0,6.0,80,0.00,,---,0.03,VWS V14.00,2013-01-06 20:23:00,
2013-01-06 15:28:00,50.7,44.8,30.11,WSW,257,0.0,1.0,80,0.00,,---,0.03,VWS V14.00,2013-01-06 20:28:00,
2013-01-06 15:33:00,50.9,45.0,30.11,West,259,2.0,4.0,80,0.00,,---,0.03,VWS V14.00,2013-01-06 20:33:00,
2013-01-06 15:38:00,51.0,44.4,30.10,West,260,1.0,4.0,78,0.00,,---,0.03,VWS V14.00,2013-01-06 20:38:00,
2013-01-06 15:43:00,51.1,44.8,30.11,West,260,2.0,4.0,79,0.00,,---,0.03,VWS V14.00,2013-01-06 20:43:00,
2013-01-06 15:48:00,51.2,44.9,30.11,West,259,3.0,5.0,79,0.00,,---,0.03,VWS V14.00,2013-01-06 20:48:00,
2013-01-06 15:54:00,51.3,44.7,30.11,West,265,0.0,5.0,78,0.00,,---,0.03,VWS V14.00,2013-01-06 20:54:00,
2013-01-06 15:59:00,51.4,44.8,30.11,West,265,1.0,3.0,78,0.00,,---,0.03,VWS V14.00,2013-01-06 20:59:00,
2013-01-06 16:01:00,51.5,44.5,30.10,West,275,1.0,6.0,77,0.00,,---,0.03,VWS V14.00,2013-01-06 21:01:00,
2013-01-06 16:06:00,51.7,44.7,30.10,West,279,1.0,6.0,77,0.00,,---,0.03,VWS V14.00,2013-01-06 21:06:00,
2013-01-06 16:11:00,51.9,44.6,30.10,West,281,0.0,6.0,76,0.00,,---,0.03,VWS V14.00,2013-01-06 21:11:00,
2013-01-06 16:16:00,52.0,44.7,30.09,West,281,0.0,6.0,76,0.00,,---,0.03,VWS V14.00,2013-01-06 21:16:00,
2013-01-06 16:21:00,52.1,44.8,30.09,WNW,290,4.0,7.0,76,0.00,,---,0.03,VWS V14.00,2013-01-06 21:21:00,
2013-01-06 16:26:00,52.0,44.7,30.09,WNW,284,0.0,7.0,76,0.00,,---,0.03,VWS V14.00,2013-01-06 21:26:00,
2013-01-06 16:31:00,51.9,44.6,30.10,WNW,285,1.0,4.0,76,0.00,,---,0.03,VWS V14.00,2013-01-06 21:31:00,
2013-01-06 16:36:00,51.9,44.6,30.09,WNW,289,0.0,5.0,76,0.00,,---,0.03,VWS V14.00,2013-01-06 21:36:00,
2013-01-06 16:41:00,51.8,44.8,30.10,WNW,289,0.0,5.0,77,0.00,,---,0.03,VWS V14.00,2013-01-06 21:41:00,
2013-01-06 16:46:00,51.7,44.4,30.09,WNW,289,0.0,5.0,76,0.00,,---,0.03,VWS V14.00,2013-01-06 21:46:00,
2013-01-06 16:51:00,51.7,44.4,30.10,WNW,286,2.0,5.0,76,0.00,,---,0.03,VWS V14.00,2013-01-06 21:51:00,
2013-01-06 16:56:00,51.6,44.6,30.09,WNW,284,0.0,5.0,77,0.00,,---,0.03,VWS V14.00,2013-01-06 21:56:00,
2013-01-06 17:01:00,51.5,44.5,30.09,WNW,284,1.0,4.0,77,0.00,,---,0.03,VWS V14.00,2013-01-06 22:01:00,
2013-01-06 17:06:00,51.4,44.4,30.10,WNW,284,4.0,4.0,77,0.00,,---,0.03,VWS V14.00,2013-01-06 22:06:00,
2013-01-06 17:11:00,51.3,44.3,30.10,West,268,0.0,6.0,77,0.00,,---,0.03,VWS V14.00,2013-01-06 22:11:00,
2013-01-06 17:16:00,51.2,44.2,30.10,West,275,0.0,6.0,77,0.00,,---,0.03,VWS V14.00,2013-01-06 22:16:00,
2013-01-06 17:21:00,51.1,44.2,30.10,West,275,2.0,6.0,77,0.00,,---,0.03,VWS V14.00,2013-01-06 22:21:00,
2013-01-06 17:26:00,51.0,44.4,30.10,West,275,2.0,6.0,78,0.00,,---,0.03,VWS V14.00,2013-01-06 22:26:00,
2013-01-06 17:31:00,50.8,44.2,30.09,West,275,4.0,4.0,78,0.00,,---,0.03,VWS V14.00,2013-01-06 22:31:00,
2013-01-06 17:36:00,50.7,44.1,30.10,West,273,1.0,5.0,78,0.00,,---,0.03,VWS V14.00,2013-01-06 22:36:00,
2013-01-06 17:42:00,50.6,44.0,30.10,West,273,0.0,5.0,78,0.00,,---,0.03,VWS V14.00,2013-01-06 22:42:00,
2013-01-06 17:47:00,50.4,43.8,30.10,West,273,0.0,5.0,78,0.00,,---,0.03,VWS V14.00,2013-01-06 22:47:00,
2013-01-06 17:52:00,50.3,44.0,30.10,West,273,0.0,5.0,79,0.00,,---,0.03,VWS V14.00,2013-01-06 22:52:00,
2013-01-06 17:57:00,50.1,43.8,30.10,West,273,1.0,5.0,79,0.00,,---,0.03,VWS V14.00,2013-01-06 22:57:00,
2013-01-06 18:01:00,50.0,43.8,30.10,West,273,0.0,1.0,79,0.00,,---,0.03,VWS V14.00,2013-01-06 23:01:00,
2013-01-06 18:06:00,49.9,43.7,30.10,West,273,0.0,2.0,79,0.00,,---,0.03,VWS V14.00,2013-01-06 23:06:00,
2013-01-06 18:11:00,49.8,43.6,30.11,West,273,0.0,2.0,79,0.00,,---,0.03,VWS V14.00,2013-01-06 23:11:00,
2013-01-06 18:16:00,49.7,43.5,30.11,West,273,1.0,4.0,79,0.00,,---,0.03,VWS V14.00,2013-01-06 23:16:00,
2013-01-06 18:24:00,49.5,43.6,30.11,West,275,2.0,2.0,80,0.00,,---,0.03,VWS V14.00,2013-01-06 23:24:00,
2013-01-06 18:29:00,49.4,43.5,30.11,West,275,1.0,1.0,80,0.00,,---,0.03,VWS V14.00,2013-01-06 23:29:00,
2013-01-06 18:34:00,49.2,43.3,30.11,West,275,1.0,1.0,80,0.00,,---,0.03,VWS V14.00,2013-01-06 23:34:00,
2013-01-06 18:39:00,49.1,43.5,30.12,West,275,0.0,2.0,81,0.00,,---,0.03,VWS V14.00,2013-01-06 23:39:00,
2013-01-06 18:44:00,48.9,43.3,30.12,West,279,0.0,6.0,81,0.00,,---,0.03,VWS V14.00,2013-01-06 23:44:00,
2013-01-06 18:49:00,48.7,43.1,30.12,West,279,0.0,6.0,81,0.00,,---,0.03,VWS V14.00,2013-01-06 23:49:00,
2013-01-06 18:54:00,48.5,43.3,30.12,West,281,2.0,6.0,82,0.00,,---,0.03,VWS V14.00,2013-01-06 23:54:00,
2013-01-06 18:59:00,48.4,43.2,30.12,West,281,0.0,1.0,82,0.00,,---,0.03,VWS V14.00,2013-01-06 23:59:00,
2013-01-06 19:04:00,48.2,43.0,30.12,West,281,0.0,2.0,82,0.00,,---,0.03,VWS V14.00,2013-01-07 00:04:00,
2013-01-06 19:09:00,48.0,42.8,30.11,West,281,0.0,2.0,82,0.00,,---,0.03,VWS V14.00,2013-01-07 00:09:00,
2013-01-06 19:14:00,47.9,43.0,30.11,West,281,0.0,4.0,83,0.00,,---,0.03,VWS V14.00,2013-01-07 00:14:00,
2013-01-06 19:19:00,47.7,42.8,30.11,West,281,0.0,4.0,83,0.00,,---,0.03,VWS V14.00,2013-01-07 00:19:00,
2013-01-06 19:24:00,47.4,42.5,30.11,West,281,0.0,4.0,83,0.00,,---,0.03,VWS V14.00,2013-01-07 00:24:00,
2013-01-06 19:29:00,47.2,42.6,30.12,West,281,1.0,4.0,84,0.00,,---,0.03,VWS V14.00,2013-01-07 00:29:00,
2013-01-06 19:34:00,47.0,42.4,30.12,WNW,284,1.0,5.0,84,0.00,,---,0.03,VWS V14.00,2013-01-07 00:34:00,
2013-01-06 19:39:00,46.9,42.3,30.13,WNW,284,0.0,5.0,84,0.00,,---,0.03,VWS V14.00,2013-01-07 00:39:00,
2013-01-06 19:44:00,46.8,42.5,30.12,WNW,284,1.0,5.0,85,0.00,,---,0.03,VWS V14.00,2013-01-07 00:44:00,
2013-01-06 19:49:00,46.6,42.3,30.12,WNW,284,1.0,5.0,85,0.00,,---,0.03,VWS V14.00,2013-01-07 00:49:00,
2013-01-06 19:54:00,46.6,42.3,30.13,WNW,284,1.0,5.0,85,0.00,,---,0.03,VWS V14.00,2013-01-07 00:54:00,
2013-01-06 19:59:00,46.7,42.4,30.13,WNW,290,2.0,5.0,85,0.00,,---,0.03,VWS V14.00,2013-01-07 00:59:00,
2013-01-06 20:04:00,46.8,42.2,30.14,NW,305,1.0,6.0,84,0.00,,---,0.03,VWS V14.00,2013-01-07 01:04:00,
2013-01-06 20:09:00,46.8,41.9,30.14,NW,313,2.0,7.0,83,0.00,,---,0.03,VWS V14.00,2013-01-07 01:09:00,
2013-01-06 20:14:00,47.0,41.5,30.14,NW,323,8.0,8.0,81,0.00,,---,0.03,VWS V14.00,2013-01-07 01:14:00,
2013-01-06 20:19:00,47.0,40.8,30.14,NW,304,1.0,11.0,79,0.00,,---,0.03,VWS V14.00,2013-01-07 01:19:00,
2013-01-06 20:24:00,46.9,40.4,30.14,NW,306,0.0,11.0,78,0.00,,---,0.03,VWS V14.00,2013-01-07 01:24:00,
2013-01-06 20:29:00,46.9,40.4,30.14,NW,311,4.0,5.0,78,0.00,,---,0.03,VWS V14.00,2013-01-07 01:29:00,
2013-01-06 20:34:00,46.7,40.2,30.14,NW,309,5.0,7.0,78,0.00,,---,0.03,VWS V14.00,2013-01-07 01:34:00,
2013-01-06 20:39:00,46.6,39.8,30.15,NW,309,8.0,8.0,77,0.00,,---,0.03,VWS V14.00,2013-01-07 01:39:00,
2013-01-06 20:44:00,46.5,39.7,30.15,NW,316,2.0,9.0,77,0.00,,---,0.03,VWS V14.00,2013-01-07 01:44:00,
2013-01-06 20:49:00,46.3,39.2,30.15,NW,321,0.0,9.0,76,0.00,,---,0.03,VWS V14.00,2013-01-07 01:49:00,
2013-01-06 20:54:00,46.3,39.2,30.14,NNW,338,0.0,12.0,76,0.00,,---,0.03,VWS V14.00,2013-01-07 01:54:00,
2013-01-06 20:59:00,46.1,39.0,30.15,NW,323,0.0,4.0,76,0.00,,---,0.03,VWS V14.00,2013-01-07 01:59:00,
2013-01-06 21:04:00,45.9,38.4,30.15,West,279,4.0,10.0,75,0.00,,---,0.03,VWS V14.00,2013-01-07 02:04:00,
2013-01-06 21:09:00,45.8,38.3,30.15,WNW,284,2.0,10.0,75,0.00,,---,0.03,VWS V14.00,2013-01-07 02:09:00,
2013-01-06 21:14:00,45.6,38.2,30.15,NW,313,4.0,11.0,75,0.00,,---,0.03,VWS V14.00,2013-01-07 02:14:00,
2013-01-06 21:19:00,45.5,38.0,30.16,NW,308,2.0,13.0,75,0.00,,---,0.03,VWS V14.00,2013-01-07 02:19:00,
2013-01-06 21:24:00,45.4,38.0,30.16,NW,309,2.0,13.0,75,0.00,,---,0.03,VWS V14.00,2013-01-07 02:24:00,
2013-01-06 21:29:00,45.2,37.8,30.16,West,273,1.0,7.0,75,0.00,,---,0.03,VWS V14.00,2013-01-07 02:29:00,
2013-01-06 21:34:00,45.1,37.7,30.16,NW,311,0.0,9.0,75,0.00,,---,0.03,VWS V14.00,2013-01-07 02:34:00,
2013-01-06 21:39:00,45.0,37.6,30.16,WNW,292,2.0,9.0,75,0.00,,---,0.03,VWS V14.00,2013-01-07 02:39:00,
2013-01-06 21:44:00,44.9,37.8,30.17,NW,318,6.0,10.0,76,0.00,,---,0.03,VWS V14.00,2013-01-07 02:44:00,
2013-01-06 21:49:00,44.7,37.6,30.17,NW,304,4.0,10.0,76,0.00,,---,0.03,VWS V14.00,2013-01-07 02:49:00,
2013-01-06 21:54:00,44.6,37.5,30.17,NW,321,7.0,10.0,76,0.00,,---,0.03,VWS V14.00,2013-01-07 02:54:00,
2013-01-06 21:58:00,44.4,37.3,30.17,NW,325,1.0,5.0,76,0.00,,---,0.03,VWS V14.00,2013-01-07 02:58:00,
2013-01-06 22:03:00,44.3,37.2,30.17,NW,317,4.0,9.0,76,0.00,,---,0.03,VWS V14.00,2013-01-07 03:03:00,
2013-01-06 22:08:00,44.2,37.5,30.17,NW,325,2.0,9.0,77,0.00,,---,0.03,VWS V14.00,2013-01-07 03:08:00,
2013-01-06 22:14:00,44.0,37.3,30.18,North,350,6.0,6.0,77,0.00,,---,0.03,VWS V14.00,2013-01-07 03:14:00,
2013-01-06 22:19:00,43.8,37.1,30.18,NW,309,0.0,7.0,77,0.00,,---,0.03,VWS V14.00,2013-01-07 03:19:00,
2013-01-06 22:24:00,43.7,37.0,30.18,NNW,341,0.0,7.0,77,0.00,,---,0.03,VWS V14.00,2013-01-07 03:24:00,
2013-01-06 22:29:00,43.6,37.2,30.18,NW,313,0.0,5.0,78,0.00,,---,0.03,VWS V14.00,2013-01-07 03:29:00,
2013-01-06 22:34:00,43.5,37.1,30.19,WNW,303,4.0,8.0,78,0.00,,---,0.03,VWS V14.00,2013-01-07 03:34:00,
2013-01-06 22:39:00,43.4,37.0,30.19,NW,304,2.0,8.0,78,0.00,,---,0.03,VWS V14.00,2013-01-07 03:39:00,
2013-01-06 22:44:00,43.3,36.9,30.19,NW,311,0.0,8.0,78,0.00,,---,0.03,VWS V14.00,2013-01-07 03:44:00,
2013-01-06 22:49:00,43.3,36.9,30.19,NW,322,0.0,8.0,78,0.00,,---,0.03,VWS V14.00,2013-01-07 03:49:00,
2013-01-06 22:54:00,43.2,36.8,30.19,NW,320,5.0,11.0,78,0.00,,---,0.03,VWS V14.00,2013-01-07 03:54:00,
2013-01-06 22:59:00,43.1,36.7,30.19,NW,315,1.0,4.0,78,0.00,,---,0.03,VWS V14.00,2013-01-07 03:59:00,
2013-01-06 23:04:00,43.1,36.7,30.19,WNW,301,0.0,5.0,78,0.00,,---,0.03,VWS V14.00,2013-01-07 04:04:00,
2013-01-06 23:09:00,42.9,36.5,30.19,WNW,302,1.0,6.0,78,0.00,,---,0.03,VWS V14.00,2013-01-07 04:09:00,
2013-01-06 23:14:00,42.8,36.4,30.19,WNW,303,0.0,6.0,78,0.00,,---,0.03,VWS V14.00,2013-01-07 04:14:00,
2013-01-06 23:19:00,42.8,36.8,30.20,NW,315,5.0,7.0,79,0.00,,---,0.03,VWS V14.00,2013-01-07 04:19:00,
2013-01-06 23:24:00,42.7,36.7,30.20,NW,315,1.0,7.0,79,0.00,,---,0.03,VWS V14.00,2013-01-07 04:24:00,
2013-01-06 23:29:00,42.5,36.5,30.20,NW,307,1.0,4.0,79,0.00,,---,0.03,VWS V14.00,2013-01-07 04:29:00,
2013-01-06 23:34:00,42.3,36.3,30.20,NW,309,2.0,5.0,79,0.00,,---,0.03,VWS V14.00,2013-01-07 04:34:00,
2013-01-06 23:39:00,42.1,36.1,30.20,NW,309,1.0,5.0,79,0.00,,---,0.03,VWS V14.00,2013-01-07 04:39:00,
2013-01-06 23:44:00,41.9,36.2,30.20,NW,309,0.0,5.0,80,0.00,,---,0.03,VWS V14.00,2013-01-07 04:44:00,
2013-01-06 23:49:00,41.7,36.0,30.20,NW,309,0.0,5.0,80,0.00,,---,0.03,VWS V14.00,2013-01-07 04:49:00,
2013-01-06 23:54:00,41.5,36.1,30.21,NW,310,0.0,5.0,81,0.00,,---,0.03,VWS V14.00,2013-01-07 04:54:00,
2013-01-06 23:59:00,41.4,36.0,30.21,NW,312,1.0,1.0,81,0.00,,---,0.00,VWS V14.00,2013-01-07 04:59:00,